Time;durP1;ratioP1;P1;durP2;ratioP2;P2;SDS_P1;SDS_P2;PMS_P1;PMS_P2;Temp;Humidity;BMP_temperature;BMP_pressure;BME280_temperature;BME280_humidity;BME280_pressure;Samples;Min_cycle;Max_cycle;Signal;HPM_P1;HPM_P2
2023/05/20 00:00:49;;;;;;;1.27;1.08;;;12.40;94.10;;;;;;4962343;28;20041;-66
2023/05/20 00:03:16;;;;;;;6.15;1.40;;;12.40;94.30;;;;;;4965167;28;20049;-66
2023/05/20 00:05:41;;;;;;;2.13;1.10;;;12.40;94.20;;;;;;4953845;28;20138;-67
2023/05/20 00:08:08;;;;;;;3.33;1.40;;;12.40;94.40;;;;;;4970028;28;20030;-67
2023/05/20 00:10:37;;;;;;;3.72;1.20;;;12.30;94.50;;;;;;4969883;28;20067;-67
2023/05/20 00:13:03;;;;;;;4.18;1.30;;;12.30;94.40;;;;;;4974433;28;20035;-66
2023/05/20 00:15:28;;;;;;;2.00;0.90;;;12.30;94.40;;;;;;4965901;28;20026;-66
2023/05/20 00:17:54;;;;;;;4.60;1.30;;;12.30;94.20;;;;;;4953514;28;20019;-66
2023/05/20 00:20:20;;;;;;;1.73;1.00;;;12.40;94.20;;;;;;4963615;28;20039;-67
2023/05/20 00:22:46;;;;;;;2.63;1.60;;;12.40;94.20;;;;;;4973355;28;20023;-66
2023/05/20 00:25:13;;;;;;;6.30;1.20;;;12.30;94.30;;;;;;4970838;28;20392;-66
2023/05/20 00:27:40;;;;;;;4.15;1.10;;;12.30;94.50;;;;;;4972772;28;20110;-66
2023/05/20 00:30:06;;;;;;;4.15;1.35;;;12.30;94.70;;;;;;4948169;28;20031;-66
2023/05/20 00:32:32;;;;;;;1.75;1.23;;;12.30;94.50;;;;;;4971637;28;20073;-66
2023/05/20 00:34:59;;;;;;;2.83;1.48;;;12.30;94.70;;;;;;4968266;28;20034;-66
2023/05/20 00:37:25;;;;;;;1.67;1.13;;;12.20;94.70;;;;;;4971202;28;20034;-67
2023/05/20 00:39:51;;;;;;;2.55;1.20;;;12.20;94.70;;;;;;4967953;28;20477;-66
2023/05/20 00:42:24;;;;;;;2.55;1.50;;;12.20;94.80;;;;;;4970527;28;20030;-66
2023/05/20 00:44:50;;;;;;;2.55;1.00;;;12.20;94.80;;;;;;4955272;28;20035;-66
2023/05/20 00:47:17;;;;;;;3.90;1.35;;;12.20;94.90;;;;;;4954079;28;20058;-66
2023/05/20 00:49:47;;;;;;;2.95;1.00;;;12.10;94.80;;;;;;4968243;28;20029;-66
2023/05/20 00:52:13;;;;;;;4.55;1.63;;;12.20;94.80;;;;;;4970683;28;20039;-67
2023/05/20 00:54:40;;;;;;;7.32;1.30;;;12.20;95.00;;;;;;4949045;28;20026;-66
2023/05/20 00:57:06;;;;;;;4.03;1.65;;;12.20;94.90;;;;;;4956636;28;20444;-68
2023/05/20 00:59:34;;;;;;;3.17;1.05;;;12.20;95.00;;;;;;4973382;28;20019;-66
2023/05/20 01:02:01;;;;;;;4.93;1.30;;;12.10;95.00;;;;;;4973946;28;20030;-66
2023/05/20 01:04:27;;;;;;;1.95;1.08;;;12.10;95.10;;;;;;4935684;28;20082;-67
2023/05/20 01:06:52;;;;;;;3.45;1.00;;;12.10;95.20;;;;;;4968449;28;20058;-67
2023/05/20 01:09:18;;;;;;;3.60;0.98;;;12.00;95.50;;;;;;4963198;28;20732;-67
2023/05/20 01:11:49;;;;;;;3.22;1.15;;;12.00;95.70;;;;;;4963663;28;20039;-67
2023/05/20 01:14:17;;;;;;;4.60;1.85;;;12.00;95.60;;;;;;4961633;28;20106;-67
2023/05/20 01:16:46;;;;;;;3.55;1.23;;;11.90;95.80;;;;;;4970736;28;20050;-66
2023/05/20 01:19:34;;;;;;;2.58;1.27;;;11.90;95.90;;;;;;4968733;28;20054;-67
2023/05/20 01:22:02;;;;;;;3.15;1.10;;;11.90;96.10;;;;;;4968540;28;20018;-67
2023/05/20 01:24:27;;;;;;;1.70;1.20;;;11.80;96.30;;;;;;4967254;28;20055;-65
2023/05/20 01:26:53;;;;;;;5.05;1.17;;;11.70;96.50;;;;;;4971012;28;20507;-67
2023/05/20 01:29:18;;;;;;;5.63;1.33;;;11.70;96.70;;;;;;4969582;28;20035;-67
2023/05/20 01:31:46;;;;;;;3.13;1.30;;;11.60;96.90;;;;;;4964335;28;20030;-66
2023/05/20 01:34:12;;;;;;;2.65;1.17;;;11.60;97.10;;;;;;4971627;28;20084;-65
2023/05/20 01:36:39;;;;;;;2.65;1.27;;;11.50;97.30;;;;;;4971230;28;20039;-66
2023/05/20 01:39:05;;;;;;;3.80;1.45;;;11.50;97.60;;;;;;4971215;28;20031;-67
2023/05/20 01:41:33;;;;;;;3.58;1.52;;;11.40;98.00;;;;;;4966347;28;20111;-66
2023/05/20 01:44:00;;;;;;;2.67;1.73;;;11.30;98.30;;;;;;4965900;28;20056;-66
2023/05/20 01:46:26;;;;;;;1.65;1.02;;;11.30;98.60;;;;;;4968489;28;20027;-67
2023/05/20 01:48:52;;;;;;;5.22;1.23;;;11.20;98.80;;;;;;4970812;28;20073;-66
2023/05/20 01:51:17;;;;;;;2.88;1.27;;;11.20;99.10;;;;;;4972481;28;20102;-66
2023/05/20 01:53:43;;;;;;;2.70;1.13;;;11.10;99.30;;;;;;4970138;28;20841;-66
2023/05/20 01:56:08;;;;;;;2.03;1.20;;;11.10;99.50;;;;;;4971424;28;20030;-66
2023/05/20 01:58:34;;;;;;;5.43;1.60;;;11.10;99.70;;;;;;4968431;28;20023;-67
2023/05/20 02:01:00;;;;;;;1.52;1.05;;;11.10;99.80;;;;;;4972279;28;20033;-66
2023/05/20 02:03:26;;;;;;;2.85;1.33;;;11.00;99.90;;;;;;4969425;28;20031;-66
2023/05/20 02:05:51;;;;;;;4.53;1.27;;;11.10;99.90;;;;;;4952835;28;20042;-68
2023/05/20 02:08:17;;;;;;;2.70;1.20;;;11.20;99.80;;;;;;4971238;28;20085;-68
2023/05/20 02:10:42;;;;;;;3.05;1.48;;;11.20;99.70;;;;;;4969808;28;20023;-65
2023/05/20 02:13:08;;;;;;;4.25;1.90;;;11.30;99.90;;;;;;4974674;28;20040;-66
2023/05/20 02:15:33;;;;;;;6.63;1.80;;;11.30;99.70;;;;;;4989467;23;20058;-65
2023/05/20 02:17:59;;;;;;;2.45;1.30;;;11.20;99.90;;;;;;4988451;28;20058;-64
2023/05/20 02:20:25;;;;;;;1.88;1.00;;;11.20;99.90;;;;;;4988945;28;20026;-65
2023/05/20 02:22:50;;;;;;;4.28;1.55;;;11.20;99.90;;;;;;4990119;28;20183;-65
2023/05/20 02:25:16;;;;;;;3.72;1.38;;;11.20;99.90;;;;;;4989364;28;20050;-66
2023/05/20 02:27:41;;;;;;;5.68;1.20;;;11.20;99.90;;;;;;4983742;28;20077;-64
2023/05/20 02:30:07;;;;;;;3.10;1.30;;;11.20;99.90;;;;;;4990629;28;20035;-65
2023/05/20 02:32:33;;;;;;;2.90;1.40;;;11.20;99.90;;;;;;4988981;28;20026;-65
2023/05/20 02:34:59;;;;;;;3.60;1.20;;;11.10;99.90;;;;;;4988048;28;20105;-66
2023/05/20 02:37:24;;;;;;;2.67;1.25;;;11.00;99.90;;;;;;4990773;28;20069;-65
2023/05/20 02:39:50;;;;;;;3.83;1.70;;;11.00;99.90;;;;;;4987936;28;20487;-65
2023/05/20 02:42:16;;;;;;;2.67;1.17;;;10.90;99.90;;;;;;4991111;28;20078;-65
2023/05/20 02:44:41;;;;;;;2.40;1.50;;;10.90;99.90;;;;;;4987883;28;20073;-65
2023/05/20 02:47:07;;;;;;;3.63;1.58;;;10.80;99.90;;;;;;4988385;28;20034;-65
2023/05/20 02:49:32;;;;;;;2.67;1.52;;;10.80;99.90;;;;;;4988928;28;20030;-64
2023/05/20 02:51:58;;;;;;;3.42;1.40;;;10.70;99.90;;;;;;4991617;28;20069;-64
2023/05/20 02:54:23;;;;;;;2.92;1.35;;;10.70;99.90;;;;;;4970355;28;20031;-63
2023/05/20 02:56:49;;;;;;;7.25;1.52;;;10.80;99.90;;;;;;4990088;28;20026;-64
2023/05/20 02:59:15;;;;;;;2.80;1.40;;;10.80;99.90;;;;;;4990818;28;20026;-65
2023/05/20 03:01:40;;;;;;;5.40;1.67;;;10.80;99.90;;;;;;4990887;28;20069;-65
2023/05/20 03:04:06;;;;;;;4.95;1.10;;;10.80;99.90;;;;;;4981068;28;20028;-64
2023/05/20 03:06:31;;;;;;;3.40;1.58;;;10.80;99.90;;;;;;4969210;28;20531;-65
2023/05/20 03:08:58;;;;;;;2.40;1.60;;;10.80;99.90;;;;;;4989303;28;20030;-65
2023/05/20 03:11:23;;;;;;;4.53;1.65;;;10.80;99.90;;;;;;4989274;28;20033;-65
2023/05/20 03:13:49;;;;;;;5.32;1.50;;;10.70;99.90;;;;;;4988201;28;20022;-65
2023/05/20 03:16:15;;;;;;;2.97;1.67;;;10.70;99.90;;;;;;4988790;28;20034;-64
2023/05/20 03:18:41;;;;;;;2.88;1.50;;;10.60;99.90;;;;;;4988243;28;20034;-63
2023/05/20 03:21:07;;;;;;;2.40;1.55;;;10.60;99.90;;;;;;4990084;28;20107;-65
2023/05/20 03:23:33;;;;;;;2.60;1.33;;;10.60;99.90;;;;;;4989194;28;20550;-65
2023/05/20 03:25:58;;;;;;;3.30;1.60;;;10.60;99.90;;;;;;4987794;28;20038;-65
2023/05/20 03:28:24;;;;;;;4.15;1.30;;;10.50;99.90;;;;;;4990316;28;20114;-65
2023/05/20 03:30:49;;;;;;;2.15;1.40;;;10.50;99.90;;;;;;4988671;28;20034;-65
2023/05/20 03:33:15;;;;;;;3.63;1.70;;;10.40;99.90;;;;;;4989699;28;20038;-64
2023/05/20 03:35:41;;;;;;;2.67;1.40;;;10.40;99.90;;;;;;4986622;28;20041;-64
2023/05/20 03:38:06;;;;;;;2.35;1.52;;;10.40;99.90;;;;;;4988080;28;20114;-65
2023/05/20 03:40:32;;;;;;;3.15;1.60;;;10.40;99.90;;;;;;4971052;28;20054;-64
2023/05/20 03:42:57;;;;;;;3.22;1.35;;;10.30;99.90;;;;;;4989516;28;20065;-65
2023/05/20 03:45:23;;;;;;;3.28;1.38;;;10.30;99.90;;;;;;4988733;28;20127;-64
2023/05/20 03:47:49;;;;;;;3.92;1.83;;;10.30;99.90;;;;;;4988245;28;20058;-65
2023/05/20 03:50:14;;;;;;;3.80;1.65;;;10.30;99.90;;;;;;4989425;28;20034;-65
2023/05/20 03:52:40;;;;;;;6.15;1.85;;;10.30;99.90;;;;;;4989557;28;20042;-64
2023/05/20 03:55:06;;;;;;;4.32;1.65;;;10.30;99.90;;;;;;4985759;28;20038;-64
2023/05/20 03:57:32;;;;;;;12.32;1.75;;;10.30;99.90;;;;;;4988711;28;20381;-65
2023/05/20 03:59:58;;;;;;;3.38;1.70;;;10.30;99.90;;;;;;4990506;28;20027;-64
2023/05/20 04:02:24;;;;;;;5.72;2.10;;;10.30;99.90;;;;;;4990991;28;20032;-66
2023/05/20 04:04:51;;;;;;;4.82;1.83;;;10.40;99.90;;;;;;4971801;28;20133;-64
2023/05/20 04:07:17;;;;;;;3.33;1.70;;;10.40;99.90;;;;;;4972266;28;20085;-65
2023/05/20 04:09:43;;;;;;;3.58;2.05;;;10.50;99.90;;;;;;4989938;28;20033;-65
2023/05/20 04:12:10;;;;;;;2.13;1.65;;;10.50;99.90;;;;;;4990772;28;20022;-64
2023/05/20 04:14:35;;;;;;;3.50;1.42;;;10.50;99.90;;;;;;4995978;28;20034;-64
2023/05/20 04:17:04;;;;;;;4.72;2.92;;;10.60;99.90;;;;;;4990344;28;20035;-65
2023/05/20 04:19:30;;;;;;;5.85;1.70;;;10.60;99.90;;;;;;4990506;28;20069;-65
2023/05/20 04:21:56;;;;;;;3.40;1.70;;;10.70;99.90;;;;;;4986711;28;20035;-63
2023/05/20 04:24:24;;;;;;;2.60;1.50;;;10.80;99.90;;;;;;4990746;28;20027;-65
2023/05/20 04:26:51;;;;;;;2.88;1.40;;;10.90;99.90;;;;;;4991266;28;20045;-65
2023/05/20 04:29:17;;;;;;;8.45;1.67;;;11.00;99.90;;;;;;4993003;28;20496;-64
2023/05/20 04:31:47;;;;;;;5.80;2.00;;;11.10;99.90;;;;;;4972641;28;20043;-65
2023/05/20 04:34:13;;;;;;;3.55;1.77;;;11.10;99.90;;;;;;4990199;28;20092;-64
2023/05/20 04:36:39;;;;;;;2.85;2.03;;;11.20;99.90;;;;;;4990964;28;20444;-64
2023/05/20 04:39:06;;;;;;;4.70;2.53;;;11.40;99.90;;;;;;4992000;28;20058;-64
2023/05/20 04:41:32;;;;;;;4.30;1.92;;;11.50;99.90;;;;;;4991821;28;20476;-63
2023/05/20 04:43:59;;;;;;;3.65;1.77;;;11.50;99.90;;;;;;4991619;28;20073;-65
2023/05/20 04:46:25;;;;;;;3.03;1.80;;;11.60;99.90;;;;;;4991580;28;20022;-64
2023/05/20 04:48:51;;;;;;;3.28;1.45;;;11.80;99.90;;;;;;4989943;28;20049;-65
2023/05/20 04:51:17;;;;;;;12.88;1.88;;;11.90;99.90;;;;;;4991064;28;20030;-64
2023/05/20 04:53:43;;;;;;;3.15;1.67;;;11.90;99.90;;;;;;4989428;28;20030;-65
2023/05/20 04:56:10;;;;;;;3.08;1.80;;;12.00;99.90;;;;;;4990819;28;20503;-65
2023/05/20 04:58:35;;;;;;;4.82;1.45;;;12.10;99.90;;;;;;4987653;28;20034;-64
2023/05/20 05:01:02;;;;;;;5.07;1.60;;;12.10;99.90;;;;;;4991063;28;20550;-63
2023/05/20 05:03:27;;;;;;;2.60;1.67;;;12.20;99.90;;;;;;4986160;28;20027;-64
2023/05/20 05:05:56;;;;;;;2.97;1.52;;;12.10;99.90;;;;;;4973333;28;20039;-65
2023/05/20 05:08:22;;;;;;;5.93;1.67;;;12.20;99.90;;;;;;4992172;28;20109;-64
2023/05/20 05:10:48;;;;;;;4.57;1.80;;;12.20;99.90;;;;;;4974529;28;20138;-64
2023/05/20 05:13:13;;;;;;;3.22;1.90;;;12.30;99.90;;;;;;4990655;28;20035;-64
2023/05/20 05:15:39;;;;;;;3.75;1.98;;;12.40;99.90;;;;;;4987141;28;20038;-65
2023/05/20 05:18:05;;;;;;;4.00;2.15;;;12.50;99.90;;;;;;4989801;28;20026;-64
2023/05/20 05:20:30;;;;;;;8.40;1.83;;;12.60;99.90;;;;;;4979689;28;20030;-65
2023/05/20 05:22:56;;;;;;;3.75;1.80;;;12.70;99.90;;;;;;4990735;28;20404;-65
2023/05/20 05:25:21;;;;;;;3.55;1.70;;;12.80;99.90;;;;;;4990451;28;20042;-66
2023/05/20 05:27:50;;;;;;;4.47;1.35;;;12.90;99.90;;;;;;4990839;28;20502;-65
2023/05/20 05:30:16;;;;;;;3.80;1.80;;;13.00;99.90;;;;;;4990399;28;20102;-65
2023/05/20 05:32:41;;;;;;;5.05;1.80;;;13.10;99.90;;;;;;4990051;28;20545;-66
2023/05/20 05:35:07;;;;;;;5.25;2.10;;;13.10;99.90;;;;;;4988734;28;20097;-65
2023/05/20 05:37:33;;;;;;;6.38;1.90;;;13.20;99.90;;;;;;4973055;28;20030;-65
2023/05/20 05:39:59;;;;;;;1.90;1.38;;;13.30;99.90;;;;;;4987157;28;20032;-65
2023/05/20 05:42:24;;;;;;;4.32;1.67;;;13.40;99.90;;;;;;4990136;28;20029;-65
2023/05/20 05:44:50;;;;;;;2.42;1.80;;;13.40;99.90;;;;;;4988323;28;20027;-65
2023/05/20 05:47:16;;;;;;;5.10;2.40;;;13.30;99.90;;;;;;4984723;28;20018;-65
2023/05/20 05:49:42;;;;;;;3.63;1.90;;;13.40;99.90;;;;;;4990523;28;20105;-65
2023/05/20 05:52:07;;;;;;;3.83;1.55;;;13.50;99.90;;;;;;4991319;28;20081;-64
2023/05/20 05:54:33;;;;;;;4.57;1.92;;;13.60;99.90;;;;;;4990352;28;20030;-65
2023/05/20 05:56:58;;;;;;;8.00;2.10;;;13.70;99.90;;;;;;4990107;28;20042;-65
2023/05/20 05:59:24;;;;;;;3.10;1.98;;;13.70;99.90;;;;;;4986308;28;20027;-65
2023/05/20 06:01:50;;;;;;;4.20;1.80;;;13.80;99.90;;;;;;4985785;28;20514;-65
2023/05/20 06:04:15;;;;;;;2.63;1.83;;;14.10;99.90;;;;;;4988711;28;20029;-65
2023/05/20 06:06:41;;;;;;;3.92;1.48;;;14.30;99.90;;;;;;4973754;28;20535;-65
2023/05/20 06:09:06;;;;;;;3.45;1.90;;;14.60;99.90;;;;;;4992103;28;20034;-65
2023/05/20 06:11:32;;;;;;;3.92;1.80;;;14.90;99.90;;;;;;4991830;28;20095;-66
2023/05/20 06:13:59;;;;;;;3.50;1.90;;;15.10;99.90;;;;;;4989638;28;20480;-66
2023/05/20 06:16:24;;;;;;;3.05;1.48;;;15.40;99.90;;;;;;4991286;28;20117;-66
2023/05/20 06:18:50;;;;;;;2.97;1.90;;;15.50;99.90;;;;;;4989854;28;20249;-65
2023/05/20 06:21:16;;;;;;;4.10;1.50;;;15.70;99.50;;;;;;4989435;28;20398;-65
2023/05/20 06:23:41;;;;;;;7.35;2.20;;;15.50;99.20;;;;;;4989584;28;20112;-64
2023/05/20 06:26:07;;;;;;;3.30;1.83;;;15.40;99.60;;;;;;4989802;28;20513;-65
2023/05/20 06:28:33;;;;;;;3.97;1.88;;;15.20;99.90;;;;;;4985886;28;20030;-66
2023/05/20 06:30:59;;;;;;;3.42;2.08;;;15.30;99.90;;;;;;4984005;28;20507;-66
2023/05/20 06:33:25;;;;;;;3.60;1.88;;;15.30;99.90;;;;;;4990146;28;20480;-64
2023/05/20 06:35:52;;;;;;;8.10;2.20;;;15.20;99.90;;;;;;4986381;28;20488;-65
2023/05/20 06:38:18;;;;;;;6.15;1.90;;;15.30;99.90;;;;;;4987225;28;20599;-65
2023/05/20 06:40:44;;;;;;;3.70;1.85;;;15.40;99.90;;;;;;4986718;28;20053;-65
2023/05/20 06:43:09;;;;;;;2.72;1.63;;;15.50;99.90;;;;;;4986959;28;20626;-65
2023/05/20 06:45:35;;;;;;;6.25;2.22;;;15.70;99.90;;;;;;4971054;28;20448;-66
2023/05/20 06:48:01;;;;;;;5.55;1.95;;;15.70;99.60;;;;;;4983318;28;20033;-62
2023/05/20 06:50:27;;;;;;;3.55;1.90;;;15.80;99.90;;;;;;4986864;28;20031;-63
2023/05/20 06:52:53;;;;;;;6.63;2.60;;;16.20;99.10;;;;;;4986398;28;20365;-62
2023/05/20 06:55:18;;;;;;;2.80;2.00;;;16.20;99.00;;;;;;4982779;28;20034;-64
2023/05/20 06:57:44;;;;;;;2.50;1.90;;;16.50;98.70;;;;;;4990241;28;20022;-63
2023/05/20 07:00:12;;;;;;;5.88;2.10;;;16.70;98.50;;;;;;4987990;28;20396;-64
2023/05/20 07:02:38;;;;;;;6.60;1.52;;;17.10;98.30;;;;;;4987043;28;20105;-61
2023/05/20 07:05:04;;;;;;;3.78;2.22;;;17.60;96.70;;;;;;4966396;28;20055;-63
2023/05/20 07:07:30;;;;;;;2.80;1.73;;;17.90;96.40;;;;;;4986567;28;20113;-64
2023/05/20 07:09:56;;;;;;;2.78;1.70;;;17.80;95.70;;;;;;4987697;28;20129;-63
2023/05/20 07:12:22;;;;;;;2.85;2.00;;;18.00;95.80;;;;;;4986364;28;20022;-63
2023/05/20 07:14:47;;;;;;;2.78;2.33;;;18.10;95.60;;;;;;4990746;28;20506;-62
2023/05/20 07:17:13;;;;;;;2.75;1.88;;;18.10;95.70;;;;;;4987903;28;20030;-64
2023/05/20 07:19:39;;;;;;;4.00;2.58;;;18.20;95.20;;;;;;4988060;28;20022;-62
2023/05/20 07:22:04;;;;;;;3.53;2.22;;;18.10;95.70;;;;;;4987695;28;20031;-63
2023/05/20 07:24:30;;;;;;;3.28;1.88;;;18.30;95.00;;;;;;4989371;28;20023;-63
2023/05/20 07:26:56;;;;;;;3.30;1.83;;;18.50;95.50;;;;;;4986384;28;20027;-64
2023/05/20 07:29:21;;;;;;;5.43;1.90;;;18.70;94.40;;;;;;4984615;28;20556;-64
2023/05/20 07:31:47;;;;;;;2.42;1.92;;;18.80;94.00;;;;;;4991498;28;20084;-62
2023/05/20 07:34:12;;;;;;;3.65;1.88;;;18.90;94.20;;;;;;4986178;28;20085;-62
2023/05/20 07:36:38;;;;;;;6.07;2.10;;;18.90;94.50;;;;;;4988059;28;20504;-64
2023/05/20 07:39:04;;;;;;;4.70;2.70;;;19.20;93.70;;;;;;4989036;28;20041;-64
2023/05/20 07:41:30;;;;;;;3.13;2.22;;;19.40;93.70;;;;;;4985808;28;20508;-64
2023/05/20 07:43:55;;;;;;;5.88;1.98;;;19.40;93.20;;;;;;4987850;28;20117;-64
2023/05/20 07:46:21;;;;;;;4.07;2.28;;;19.20;93.50;;;;;;4988951;28;20022;-63
2023/05/20 07:48:47;;;;;;;3.60;2.10;;;19.00;93.60;;;;;;4987032;28;20396;-64
2023/05/20 07:51:12;;;;;;;3.03;2.15;;;18.60;93.80;;;;;;4990492;28;20180;-63
2023/05/20 07:53:38;;;;;;;4.65;1.90;;;18.40;94.50;;;;;;4989716;28;20039;-63
2023/05/20 07:56:04;;;;;;;3.70;2.33;;;18.30;94.70;;;;;;4972784;28;20111;-61
2023/05/20 07:58:30;;;;;;;4.35;1.83;;;18.50;94.70;;;;;;4990862;28;20029;-64
2023/05/20 08:00:56;;;;;;;4.60;2.13;;;18.30;94.70;;;;;;4988527;28;20117;-63
2023/05/20 08:03:22;;;;;;;3.13;2.15;;;18.60;94.80;;;;;;4995351;28;20030;-64
2023/05/20 08:05:48;;;;;;;5.63;2.22;;;18.50;94.90;;;;;;4977168;28;20053;-63
2023/05/20 08:08:14;;;;;;;3.38;1.98;;;18.60;94.70;;;;;;4994285;28;20684;-63
2023/05/20 08:10:40;;;;;;;4.15;2.10;;;18.80;94.10;;;;;;4991952;28;20080;-64
2023/05/20 08:13:06;;;;;;;6.05;2.53;;;18.60;93.90;;;;;;4993965;28;20034;-64
2023/05/20 08:15:31;;;;;;;5.03;2.50;;;18.60;93.80;;;;;;4993569;28;20038;-64
2023/05/20 08:17:57;;;;;;;5.68;2.55;;;18.80;94.30;;;;;;4991312;28;20511;-62
2023/05/20 08:20:25;;;;;;;5.78;2.10;;;19.00;94.40;;;;;;4973241;28;20030;-64
2023/05/20 08:22:50;;;;;;;2.25;1.98;;;19.50;93.50;;;;;;4994261;23;20097;-67
2023/05/20 08:25:16;;;;;;;4.25;2.22;;;19.60;93.10;;;;;;4970909;28;20031;-68
2023/05/20 08:27:42;;;;;;;3.03;2.13;;;20.00;93.40;;;;;;4971106;28;20027;-69
2023/05/20 08:30:08;;;;;;;4.18;1.95;;;20.20;92.30;;;;;;4973072;28;20489;-67
2023/05/20 08:32:35;;;;;;;2.97;1.88;;;20.30;91.80;;;;;;4971587;28;20015;-69
2023/05/20 08:35:01;;;;;;;3.08;2.25;;;20.50;92.30;;;;;;4972538;28;20058;-67
2023/05/20 08:37:27;;;;;;;7.65;2.50;;;20.40;91.60;;;;;;4973165;28;20592;-67
2023/05/20 08:39:54;;;;;;;3.90;2.25;;;20.30;91.90;;;;;;4969173;28;20440;-67
2023/05/20 08:42:22;;;;;;;5.93;2.08;;;20.60;91.30;;;;;;4959365;28;20038;-67
2023/05/20 08:44:53;;;;;;;4.68;2.40;;;20.40;91.60;;;;;;4969691;28;20023;-67
2023/05/20 08:47:21;;;;;;;3.22;2.10;;;20.40;91.40;;;;;;4972417;28;20388;-68
2023/05/20 08:49:48;;;;;;;6.32;2.17;;;20.70;91.80;;;;;;4972631;28;20030;-67
2023/05/20 08:52:16;;;;;;;3.80;2.05;;;20.50;91.80;;;;;;4969392;28;20088;-67
2023/05/20 08:54:45;;;;;;;4.95;1.90;;;20.50;91.20;;;;;;4970363;28;20035;-69
2023/05/20 08:57:12;;;;;;;5.80;2.20;;;20.40;91.20;;;;;;4973189;28;20102;-67
2023/05/20 08:59:44;;;;;;;5.50;2.13;;;20.60;91.50;;;;;;4973039;28;20019;-68
2023/05/20 09:02:10;;;;;;;8.38;2.17;;;21.00;91.70;;;;;;4971673;28;20030;-67
2023/05/20 09:04:36;;;;;;;3.30;1.90;;;21.30;91.10;;;;;;4968778;28;20023;-68
2023/05/20 09:07:02;;;;;;;3.38;2.15;;;21.40;90.00;;;;;;4939205;28;20047;-68
2023/05/20 09:09:29;;;;;;;3.53;2.15;;;21.40;90.50;;;;;;4969094;28;20155;-67
2023/05/20 09:11:55;;;;;;;6.63;1.92;;;21.50;90.40;;;;;;4970580;28;20050;-68
2023/05/20 09:14:20;;;;;;;3.88;2.00;;;22.00;90.50;;;;;;4970267;28;20753;-67
2023/05/20 09:16:47;;;;;;;5.88;2.10;;;22.20;89.50;;;;;;4967894;28;20023;-67
2023/05/20 09:19:13;;;;;;;3.95;1.92;;;22.50;89.40;;;;;;4968959;28;20034;-69
2023/05/20 09:21:40;;;;;;;3.17;1.83;;;22.70;88.30;;;;;;4967171;28;20027;-68
2023/05/20 09:24:06;;;;;;;5.65;1.90;;;22.50;86.70;;;;;;4966769;28;20034;-67
2023/05/20 09:26:32;;;;;;;2.83;1.75;;;22.50;86.90;;;;;;4967314;28;20030;-69
2023/05/20 09:28:58;;;;;;;2.28;1.55;;;22.10;87.80;;;;;;4966405;28;20050;-67
2023/05/20 09:31:29;;;;;;;4.68;1.98;;;21.80;89.30;;;;;;4968860;28;20030;-69
2023/05/20 09:33:56;;;;;;;3.33;1.83;;;21.70;89.50;;;;;;4970838;28;20071;-68
2023/05/20 09:36:23;;;;;;;2.70;1.70;;;22.00;89.40;;;;;;4970355;28;20046;-68
2023/05/20 09:38:54;;;;;;;3.28;2.05;;;22.20;90.00;;;;;;4966585;28;20109;-67
2023/05/20 09:41:23;;;;;;;5.35;2.03;;;22.00;88.00;;;;;;4971284;28;20022;-66
2023/05/20 09:43:49;;;;;;;3.17;2.08;;;22.30;88.30;;;;;;4971552;28;20030;-68
2023/05/20 09:46:16;;;;;;;3.67;1.95;;;22.00;88.60;;;;;;4970457;28;20392;-68
2023/05/20 09:48:42;;;;;;;3.35;1.98;;;21.90;89.20;;;;;;4970247;28;20034;-67
2023/05/20 09:51:10;;;;;;;4.15;2.47;;;21.70;88.20;;;;;;4970439;28;20058;-67
2023/05/20 09:53:36;;;;;;;5.15;2.47;;;21.40;89.80;;;;;;4970907;28;20484;-67
2023/05/20 09:56:02;;;;;;;5.38;1.92;;;21.30;90.60;;;;;;4967077;28;20065;-67
2023/05/20 09:58:28;;;;;;;3.25;2.17;;;21.30;90.10;;;;;;4970980;28;20019;-68
2023/05/20 10:00:54;;;;;;;4.05;2.00;;;21.10;90.00;;;;;;4968692;28;20404;-67
2023/05/20 10:03:23;;;;;;;3.53;1.90;;;21.20;90.10;;;;;;4965582;28;20023;-67
2023/05/20 10:06:10;;;;;;;3.92;2.22;;;21.00;90.20;;;;;;4948343;28;20047;-66
2023/05/20 10:08:58;;;;;;;3.55;2.20;;;20.80;90.80;;;;;;4964740;28;20038;-67
2023/05/20 10:11:42;;;;;;;3.38;2.42;;;20.60;90.80;;;;;;4960035;28;20048;-66
2023/05/20 10:14:13;;;;;;;7.80;2.00;;;20.60;90.70;;;;;;4958404;28;20122;-68
2023/05/20 10:17:08;;;;;;;4.72;2.22;;;20.80;90.80;;;;;;4971189;28;20041;-66
2023/05/20 10:19:35;;;;;;;6.07;2.63;;;21.10;90.20;;;;;;4966900;28;20038;-68
2023/05/20 10:22:01;;;;;;;4.30;2.55;;;21.00;90.40;;;;;;4966239;28;20149;-68
2023/05/20 10:24:42;;;;;;;3.38;2.10;;;21.20;90.30;;;;;;4965399;28;20035;-67
2023/05/20 10:27:10;;;;;;;3.40;1.88;;;21.10;90.60;;;;;;4969109;28;20022;-67
2023/05/20 10:29:42;;;;;;;4.95;2.38;;;21.10;90.40;;;;;;4962176;28;20488;-68
2023/05/20 10:32:08;;;;;;;3.85;2.70;;;21.30;89.80;;;;;;4968891;28;20416;-67
2023/05/20 10:34:49;;;;;;;5.28;2.75;;;21.00;90.10;;;;;;4968112;28;20034;-67
2023/05/20 10:37:26;;;;;;;2.88;1.80;;;21.00;90.70;;;;;;4971397;28;20031;-67
2023/05/20 10:40:05;;;;;;;4.10;2.58;;;21.00;90.80;;;;;;4966825;28;20121;-66
2023/05/20 10:42:31;;;;;;;3.70;2.40;;;21.00;90.80;;;;;;4965909;28;20122;-67
2023/05/20 10:44:57;;;;;;;3.58;2.20;;;21.30;91.10;;;;;;4966502;28;20103;-67
2023/05/20 10:47:23;;;;;;;3.30;2.20;;;21.60;90.20;;;;;;4970542;28;20041;-68
2023/05/20 10:49:48;;;;;;;3.30;1.98;;;21.40;90.60;;;;;;4964655;28;20034;-68
2023/05/20 10:52:15;;;;;;;3.40;2.15;;;21.60;89.70;;;;;;4968514;28;20130;-68
2023/05/20 10:54:57;;;;;;;4.50;2.38;;;21.50;90.40;;;;;;4968974;28;20039;-68
2023/05/20 10:57:23;;;;;;;4.28;2.92;;;21.20;90.20;;;;;;4970363;28;20030;-67
2023/05/20 10:59:50;;;;;;;3.20;2.35;;;21.00;90.60;;;;;;4968934;28;20030;-67
2023/05/20 11:02:16;;;;;;;7.22;2.25;;;21.10;90.30;;;;;;4967780;28;20026;-67
2023/05/20 11:04:43;;;;;;;3.97;2.47;;;21.00;90.90;;;;;;4965180;28;20035;-66
2023/05/20 11:07:09;;;;;;;5.88;2.40;;;21.10;90.90;;;;;;4952144;28;20065;-68
2023/05/20 11:09:35;;;;;;;3.22;2.42;;;21.20;90.50;;;;;;4969350;28;20528;-67
2023/05/20 11:12:01;;;;;;;3.22;2.10;;;21.40;91.20;;;;;;4969486;28;20061;-67
2023/05/20 11:14:30;;;;;;;4.45;2.47;;;21.70;90.20;;;;;;4966263;28;20015;-67
2023/05/20 11:16:57;;;;;;;6.15;2.10;;;21.60;90.30;;;;;;4969645;28;20102;-66
2023/05/20 11:19:23;;;;;;;5.43;3.10;;;21.70;90.30;;;;;;4967162;28;20030;-67
2023/05/20 11:21:48;;;;;;;5.30;2.63;;;21.60;90.40;;;;;;4969825;28;20023;-67
2023/05/20 11:24:23;;;;;;;8.73;2.65;;;21.70;90.60;;;;;;4967340;28;20026;-66
2023/05/20 11:26:49;;;;;;;2.58;2.25;;;21.60;90.30;;;;;;4969054;28;20027;-66
2023/05/20 11:29:16;;;;;;;3.35;2.63;;;20.90;90.80;;;;;;4970122;28;20074;-67
2023/05/20 11:31:42;;;;;;;3.60;2.50;;;20.80;91.40;;;;;;4972551;28;20073;-68
2023/05/20 11:34:07;;;;;;;4.85;2.33;;;20.60;91.20;;;;;;4972498;28;20788;-67
2023/05/20 11:36:33;;;;;;;4.55;2.45;;;20.30;91.50;;;;;;4969874;28;20058;-67
2023/05/20 11:38:59;;;;;;;4.47;2.67;;;20.20;91.90;;;;;;4971688;28;20093;-67
2023/05/20 11:41:26;;;;;;;3.42;3.13;;;20.00;92.50;;;;;;4972210;28;20066;-67
2023/05/20 11:43:58;;;;;;;3.38;2.45;;;20.00;92.70;;;;;;4973950;28;20111;-67
2023/05/20 11:46:24;;;;;;;4.20;2.42;;;20.00;92.90;;;;;;4966389;28;20054;-67
2023/05/20 11:49:00;;;;;;;5.22;2.85;;;20.10;92.60;;;;;;4967049;28;20501;-66
2023/05/20 11:51:27;;;;;;;4.72;2.85;;;20.40;92.30;;;;;;4972132;28;20077;-68
2023/05/20 11:54:00;;;;;;;4.03;3.10;;;20.60;92.10;;;;;;4970027;28;20027;-68
2023/05/20 11:56:32;;;;;;;5.85;3.17;;;20.80;92.00;;;;;;4970100;28;20062;-67
2023/05/20 11:59:02;;;;;;;3.50;2.53;;;21.10;91.70;;;;;;4972778;28;20027;-67
2023/05/20 12:01:44;;;;;;;4.53;2.80;;;21.00;91.20;;;;;;4970566;28;20038;-67
2023/05/20 12:04:12;;;;;;;4.78;2.88;;;20.90;91.20;;;;;;4970310;28;20055;-67
2023/05/20 12:06:38;;;;;;;3.47;2.80;;;20.70;91.40;;;;;;4952278;28;20453;-68
2023/05/20 12:09:06;;;;;;;3.25;2.42;;;20.70;91.90;;;;;;4965424;28;20389;-68
2023/05/20 12:11:36;;;;;;;10.63;3.00;;;20.50;91.70;;;;;;4968506;28;20093;-67
2023/05/20 12:14:02;;;;;;;5.47;3.20;;;20.60;92.00;;;;;;4972724;28;20085;-68
2023/05/20 12:16:32;;;;;;;4.80;3.05;;;20.30;92.10;;;;;;4972658;28;20123;-67
2023/05/20 12:18:58;;;;;;;3.95;3.03;;;20.50;92.30;;;;;;4969707;28;20023;-67
2023/05/20 12:21:24;;;;;;;3.15;2.55;;;21.00;91.30;;;;;;4969601;28;20069;-67
2023/05/20 12:23:56;;;;;;;3.72;2.45;;;21.30;91.40;;;;;;4966483;28;20033;-67
2023/05/20 12:26:26;;;;;;;4.15;2.25;;;21.50;90.80;;;;;;4973482;28;20029;-67
2023/05/20 12:28:52;;;;;;;3.72;2.53;;;21.70;90.60;;;;;;4969468;28;20110;-67
2023/05/20 12:31:18;;;;;;;3.65;2.50;;;21.60;90.60;;;;;;4966840;28;20054;-68
2023/05/20 12:33:43;;;;;;;3.00;2.22;;;21.60;90.80;;;;;;4966979;28;20530;-67
2023/05/20 12:36:09;;;;;;;4.30;2.78;;;21.30;90.40;;;;;;4964209;28;20404;-67
2023/05/20 12:38:34;;;;;;;6.60;2.33;;;21.20;90.50;;;;;;4970878;28;20027;-67
2023/05/20 12:41:00;;;;;;;5.50;2.30;;;21.10;91.00;;;;;;4962713;28;20122;-67
2023/05/20 12:43:26;;;;;;;4.93;2.78;;;21.20;91.20;;;;;;4969983;28;20396;-68